Wednesday, February 10, 2016
13:03 UTC
  |  Log In   |  Register Free
Airport Search:

Richmond Municipal Airport
(KRID)

Richmond Municipal Airport Diagram
No Airport Diagram Available

FAA data valid effective Dec 10 2015 - Feb 4 2016 (unless otherwise noted).

 
 
 
 
 
 
 
 
 
 
 
 
 
 
Current Aviation Weather for KRID

Weather Summary


Current weather conditions are not available for RID - The nearest NOAA weather station is at MWO, (24.7 nm SE from RID)

The most recent METAR observation for RID was updated at: 12:55 UTC
METAR for KRID is not available. Closest METAR is for KMWO 24.7 nm NW
KMWO  (24.7 nm NW)   (most recent observation was updated at 10:12 UTC)
101235Z AUTO 25007KT 4SM -SN BKN017 BKN022 OVC050 M08/M12 A2998 RMK AO2 T10831120

KHAO  (27.9 nm NW)   (most recent observation was updated at 10:11 UTC)
101153Z AUTO 27009KT 9SM BKN065 OVC080 M09/M13 A2998 RMK AO2 SLP162 60000 T10891128 11083 21100 53011

TAF for KRID is not available.
KDAY  (30.0 nm SW)   (most recent observation was updatred at 10:11 UTC)
101128Z 1012/1112 26012G20KT 3SM -SHSN OVC025 TEMPO 1012/1016 1SM -SHSN OVC015 FM101800 28016G22KT 4SM -SHSN OVC025 FM110000 27010KT P6SM BKN035


GlobalAir.com is loading additional information.
 Current Weather at MWO
18.0 F° (-8.0 C°)

West winds at 10.4 mph
Pressure:
29.97 in
Humidity:
76%
Wind:
West at 10.4 mph
Dew Point:
11.3 F° (-11.5 C°)
Visibility:
2.50 mi
RID NOAA Radar




Find All Airport Services Find A Hotel Find A Rental Car Find A Golf Course Find A Restaurant $100 Hamburger



Airport Weather Forecast for KRID

Translated METAR for KMWO (1235 UTC)
METAR:
KMWO 101235Z AUTO 25007KT 4SM -SN BKN017 BKN022 OVC050 M08/M12 A2998 RMK AO2 T10831120
Conditions at:
KMWO (Middletown Regional/Hook Field, OH) observed 1235 UTC 10 February 2016
Temperature:
-8°C (17.6°F)
Dewpoint:
-12°C (10.4°F) [RH = 72.9]
Pressure:
29.98 inches Hg (1015.2 mb)
Winds:
from the WSW (250 degrees) at 8.1 mph (7 knots: 3.6 m/s)
Visibility:
4 mile(s)
Ceiling:
1,700 feet AGL
Clouds:
Broken Cloud Cover at 1,700 feet AGL
Broken Cloud Cover at 2,200 feet AGL
Overcast Skies at 5,000 feet AGL
Remarks:
site is un-manned
site is automated and HAS a precipitation sensor

Translated TAF for KDAY (James M Cox Dayton Intl, OH) (1128 UTC)
TAF text:
KDAY 101128Z 1012/1112 26012G20KT 3SM -SHSN OVC025
Forecast period:
Wednesday Feb 10 2016 12:00 UTC - Thursday Feb 11 2016 12:00 UTC
Forecast type:
FROM: standard forecast or significant change
Winds:
from the W (260 degrees) at 13.8 mph (12 knots: 6.2 m/s)
gusting to 23 mph (20 knots: 10.3 m/s)
Visibility:
3 mile(s) (4.8 km)
Ceiling:
2,500 feet AGL
Clouds:
Overcast Skies at 2,500 feet AGL
Weather:
Light Shower(s) Snow
TAF text:
1012/1016 1SM -SHSN OVC015
Forecast period:
Thursday Feb 11 2016 12:00 UTC - Thursday Feb 11 2016 16:00 UTC
Forecast type:
FROM: standard forecast or significant change
Winds:
Visibility:
1 mile(s) (1.6 km)
Ceiling:
1,500 feet AGL
Clouds:
Overcast Skies at 1,500 feet AGL
Weather:
Light Shower(s) Snow
TAF text:
FM101800 28016G22KT 4SM -SHSN OVC025
Forecast period:
Wednesday Feb 10 2016 18:00 UTC - Thursday Feb 11 2016 00:00 UTC
Forecast type:
FROM: standard forecast or significant change
Winds:
from the W (280 degrees) at 18.4 mph (16 knots: 8.2 m/s)
gusting to 25.3 mph (22 knots: 11.3 m/s)
Visibility:
4 mile(s) (6.4 km)
Ceiling:
2,500 feet AGL
Clouds:
Overcast Skies at 2,500 feet AGL
Weather:
Light Shower(s) Snow
TAF text:
FM110000 27010KT P6SM BKN035
Forecast period:
Thursday Feb 11 2016 00:00 UTC - Thursday Feb 11 2016 12:00 UTC
Forecast type:
FROM: standard forecast or significant change
Winds:
from the W (270 degrees) at 11.5 mph (10 knots: 5.1 m/s)
Visibility:
6 or more mile(s) (9.7+ km)
Ceiling:
3,500 feet AGL
Clouds:
Broken Cloud Cover at 3,500 feet AGL
Weather:
no significant weather observed at this time
FBO's on the Field
FBO Company Facility Photos Services Transportation Aviation Fuel Prices: Prices include tax
Catering Weather Repair Courtesy Rental Type 100LL JetA JetA+ MOGAS 8087
 
Richmond Municipal Airport

Currently rated 5 by 1 person
FS:Phillips 66
Last Updated: Feb-04
Login to update fuel prices
SS:
Contact Richmond Municipal AirportMore FBO Information
 
Add another FBO Facility Photos Catering Weather Repair Courtesy Rental Type 100LL JetA JetA+ MOGAS 8087
Services Transportation Aviation Fuel Prices: Prices include tax


model-print
model-print
model-print
model-print